createdAt,value
2023-02-23T00:03:09.284Z,100950.27
2023-02-23T00:06:40.811Z,100948.05
2023-02-23T00:10:12.844Z,100948.73
2023-02-23T00:13:41.219Z,100948.36
2023-02-23T00:17:15.283Z,100948.89
2023-02-23T00:20:49.063Z,100949.73
2023-02-23T00:24:19.474Z,100949.41
2023-02-23T00:27:49.769Z,100944.29
2023-02-23T00:31:17.545Z,100941.56
2023-02-23T00:34:45.222Z,100939.15
2023-02-23T00:38:14.445Z,100937.95
2023-02-23T00:41:44.266Z,100936.41
2023-02-23T00:45:13.526Z,100934.19
2023-02-23T00:48:42.332Z,100931.97
2023-02-23T00:52:11.466Z,100933.83
2023-02-23T00:55:42.198Z,100931.95
2023-02-23T00:59:10.031Z,100929.38
2023-02-23T01:02:37.169Z,100924.08
2023-02-23T01:06:06.729Z,100924.45
2023-02-23T01:09:35.238Z,100923.09
2023-02-23T01:13:06.273Z,100922.41
2023-02-23T01:16:39.281Z,100920.88
2023-02-23T01:20:15.981Z,100923.10
2023-02-23T01:23:43.188Z,100922.41
2023-02-23T01:27:10.770Z,100917.63
2023-02-23T01:30:38.027Z,100919.52
2023-02-23T01:34:06.219Z,100917.46
2023-02-23T01:37:35.655Z,100918.83
2023-02-23T01:41:04.392Z,100914.21
2023-02-23T01:45:15.033Z,100910.45
2023-02-23T01:48:43.884Z,100901.05
2023-02-23T01:52:14.776Z,100900.02
2023-02-23T01:55:43.288Z,100897.80
2023-02-23T01:59:13.078Z,100893.19
2023-02-23T02:02:42.335Z,100888.58
2023-02-23T02:06:14.798Z,100882.27
2023-02-23T02:10:03.563Z,100878.32
2023-02-23T02:13:33.726Z,100877.11
2023-02-23T02:17:13.358Z,100874.21
2023-02-23T02:21:16.660Z,100874.04
2023-02-23T02:25:18.919Z,100869.08
2023-02-23T02:29:29.157Z,100870.61
2023-02-23T02:33:27.586Z,100867.17
2023-02-23T02:37:39.530Z,100867.16
2023-02-23T02:41:12.315Z,100863.91
2023-02-23T02:44:53.353Z,100865.45
2023-02-23T02:48:34.991Z,100865.79
2023-02-23T02:52:13.997Z,100865.80
2023-02-23T02:55:44.182Z,100859.83
2023-02-23T02:59:36.292Z,100860.33
2023-02-23T03:03:21.431Z,100861.19
2023-02-23T03:07:12.258Z,100862.20
2023-02-23T03:11:05.994Z,100864.27
2023-02-23T03:14:53.049Z,100863.94
2023-02-23T03:18:57.084Z,100858.83
2023-02-23T03:22:48.930Z,100857.81
2023-02-23T03:26:40.677Z,100855.96
2023-02-23T03:30:34.756Z,100849.83
2023-02-23T03:34:28.357Z,100849.15
2023-02-23T03:38:19.839Z,100847.95
2023-02-23T03:42:05.626Z,100846.23
2023-02-23T03:45:52.411Z,100840.27
2023-02-23T03:49:40.354Z,100839.40
2023-02-23T03:53:27.024Z,100836.65
2023-02-23T03:57:14.301Z,100831.87
2023-02-23T04:01:04.332Z,100828.95
2023-02-23T04:04:49.686Z,100822.46
2023-02-23T04:08:37.898Z,100826.55
2023-02-23T04:12:28.582Z,100817.17
2023-02-23T04:15:57.098Z,100810.35
2023-02-23T04:19:23.603Z,100806.92
2023-02-23T04:22:50.102Z,100803.85
2023-02-23T04:26:16.901Z,100801.96
2023-02-23T04:29:44.381Z,100800.94
2023-02-23T04:33:11.176Z,100798.71
2023-02-23T04:36:37.656Z,100795.13
2023-02-23T04:40:04.438Z,100790.33
2023-02-23T04:43:31.134Z,100791.52
2023-02-23T04:46:57.403Z,100784.70
2023-02-23T04:50:24.293Z,100785.86
2023-02-23T04:53:50.983Z,100785.87
2023-02-23T04:57:17.648Z,100785.02
2023-02-23T05:00:44.414Z,100782.63
2023-02-23T05:04:11.687Z,100779.91
2023-02-23T05:07:39.009Z,100772.92
2023-02-23T05:11:07.375Z,100770.36
2023-02-23T05:14:34.209Z,100770.02
2023-02-23T05:18:00.724Z,100765.59
2023-02-23T05:21:27.647Z,100760.52
2023-02-23T05:24:57.312Z,100755.22
2023-02-23T05:28:24.066Z,100754.91
2023-02-23T05:31:51.011Z,100748.60
2023-02-23T05:35:18.584Z,100748.42
2023-02-23T05:38:45.921Z,100748.08
2023-02-23T05:42:17.313Z,100743.50
2023-02-23T05:45:45.382Z,100738.55
2023-02-23T05:49:13.993Z,100737.37
2023-02-23T05:52:42.411Z,100735.83
2023-02-23T05:56:13.962Z,100736.84
2023-02-23T05:59:40.620Z,100733.42
2023-02-23T06:03:07.350Z,100734.29
2023-02-23T06:06:34.400Z,100732.57
2023-02-23T06:10:01.290Z,100728.64
2023-02-23T06:13:29.236Z,100728.30
2023-02-23T06:16:56.751Z,100729.98
2023-02-23T06:20:23.916Z,100728.27
2023-02-23T06:23:50.924Z,100728.28
2023-02-23T06:27:17.970Z,100729.98
2023-02-23T06:30:45.955Z,100727.42
2023-02-23T06:34:12.883Z,100725.72
2023-02-23T06:37:39.920Z,100727.28
2023-02-23T06:41:12.343Z,100731.71
2023-02-23T06:44:39.901Z,100725.06
2023-02-23T06:48:07.917Z,100724.71
2023-02-23T06:51:35.656Z,100724.38
2023-02-23T06:55:02.614Z,100723.38
2023-02-23T06:58:29.911Z,100726.29
2023-02-23T07:01:56.842Z,100723.90
2023-02-23T07:05:23.492Z,100724.25
2023-02-23T07:08:50.534Z,100720.34
2023-02-23T07:12:17.348Z,100716.76
2023-02-23T07:15:44.651Z,100711.48
2023-02-23T07:19:11.561Z,100707.55
2023-02-23T07:22:40.002Z,100703.81
2023-02-23T07:26:07.387Z,100702.25
2023-02-23T07:29:34.233Z,100703.62
2023-02-23T07:33:03.125Z,100699.36
2023-02-23T07:36:29.788Z,100701.73
2023-02-23T07:39:56.602Z,100698.83
2023-02-23T07:43:24.459Z,100694.91
2023-02-23T07:46:53.246Z,100697.80
2023-02-23T07:50:21.005Z,100697.81
2023-02-23T07:53:48.086Z,100693.38
2023-02-23T07:57:14.972Z,100687.71
2023-02-23T08:00:41.797Z,100682.09
2023-02-23T08:04:09.183Z,100682.75
2023-02-23T08:07:36.654Z,100678.47
2023-02-23T08:11:05.314Z,100668.73
2023-02-23T08:14:32.218Z,100667.16
2023-02-23T08:17:59.312Z,100663.40
2023-02-23T08:21:25.749Z,100657.25
2023-02-23T08:24:52.093Z,100661.47
2023-02-23T08:28:20.579Z,100660.92
2023-02-23T08:31:48.430Z,100657.48
2023-02-23T08:35:16.084Z,100656.61
2023-02-23T08:38:42.509Z,100652.48
2023-02-23T08:42:10.533Z,100649.73
2023-02-23T08:45:38.930Z,100644.22
2023-02-23T08:49:09.036Z,100640.61
2023-02-23T08:52:36.558Z,100635.77
2023-02-23T08:56:18.102Z,100636.17
2023-02-23T08:59:49.307Z,100629.06
2023-02-23T09:03:20.408Z,100620.76
2023-02-23T09:06:50.953Z,100621.67
2023-02-23T09:10:25.913Z,100619.00
2023-02-23T09:14:01.019Z,100613.94
2023-02-23T09:17:30.349Z,100609.73
2023-02-23T09:21:00.403Z,100606.42
2023-02-23T09:24:28.688Z,100601.40
2023-02-23T09:27:59.804Z,100604.38
2023-02-23T09:31:27.374Z,100603.63
2023-02-23T09:34:54.260Z,100601.49
2023-02-23T09:38:20.767Z,100593.17
2023-02-23T09:42:18.129Z,100589.14
2023-02-23T09:45:49.228Z,100587.60
2023-02-23T09:49:20.181Z,100587.67
2023-02-23T09:52:50.656Z,100590.81
2023-02-23T09:56:22.128Z,100592.58
2023-02-23T09:59:48.810Z,100588.00
2023-02-23T10:03:26.047Z,100587.84
2023-02-23T10:07:00.632Z,100591.04
2023-02-23T10:10:37.799Z,100585.90
2023-02-23T10:14:21.664Z,100584.94
2023-02-23T10:17:53.284Z,100586.69
2023-02-23T10:21:26.586Z,100588.13
2023-02-23T10:24:57.783Z,100584.02
2023-02-23T10:28:25.368Z,100580.02
2023-02-23T10:31:58.314Z,100574.44
2023-02-23T10:35:26.354Z,100570.63
2023-02-23T10:38:53.119Z,100569.59
2023-02-23T10:42:24.479Z,100568.69
2023-02-23T10:45:52.859Z,100561.82
2023-02-23T10:49:23.249Z,100555.95
2023-02-23T10:52:53.038Z,100554.69
2023-02-23T10:56:21.843Z,100550.09
2023-02-23T11:00:03.425Z,100547.15
2023-02-23T11:03:37.400Z,100533.67
2023-02-23T11:07:18.008Z,100530.15
2023-02-23T11:10:56.297Z,100527.91
2023-02-23T11:14:28.925Z,100518.13
2023-02-23T11:18:00.898Z,100512.98
2023-02-23T11:21:33.712Z,100515.95
2023-02-23T11:25:01.850Z,100509.13
2023-02-23T11:28:33.607Z,100505.60
2023-02-23T11:32:09.865Z,100502.17
2023-02-23T11:35:37.754Z,100492.83
2023-02-23T11:39:23.722Z,100486.05
2023-02-23T11:42:57.325Z,100482.02
2023-02-23T11:46:25.667Z,100471.62
2023-02-23T11:49:53.440Z,100464.48
2023-02-23T11:53:30.030Z,100463.98
2023-02-23T11:56:58.279Z,100455.64
2023-02-23T12:00:30.425Z,100449.20
2023-02-23T12:03:59.157Z,100442.66
2023-02-23T12:07:39.140Z,100443.27
2023-02-23T12:11:12.444Z,100434.73
2023-02-23T12:14:49.991Z,100420.27
2023-02-23T12:18:27.223Z,100414.54
2023-02-23T12:22:03.701Z,100404.90
2023-02-23T12:25:36.489Z,100403.06
2023-02-23T12:29:07.538Z,100403.88
2023-02-23T12:32:45.341Z,100389.05
2023-02-23T12:36:26.709Z,100380.39
2023-02-23T12:39:58.841Z,100376.27
2023-02-23T12:43:31.882Z,100366.98
2023-02-23T12:47:04.403Z,100358.83
2023-02-23T12:50:34.753Z,100354.02
2023-02-23T12:54:03.154Z,100349.25
2023-02-23T12:57:39.103Z,100341.35
2023-02-23T13:01:13.164Z,100335.37
2023-02-23T13:05:06.054Z,100327.32
2023-02-23T13:08:50.906Z,100316.55
2023-02-23T13:12:33.414Z,100316.98
2023-02-23T13:16:05.762Z,100309.39
2023-02-23T13:19:39.627Z,100306.42
2023-02-23T13:23:16.466Z,100301.36
2023-02-23T13:26:50.465Z,100290.13
2023-02-23T13:30:18.153Z,100280.28
2023-02-23T13:33:44.824Z,100278.95
2023-02-23T13:37:13.876Z,100277.95
2023-02-23T13:40:46.817Z,100272.94
2023-02-23T13:44:23.495Z,100273.66
2023-02-23T13:47:55.762Z,100268.62
2023-02-23T13:51:31.394Z,100268.23
2023-02-23T13:55:04.773Z,100264.82
2023-02-23T13:58:34.271Z,100263.84
2023-02-23T14:02:17.898Z,100260.95
2023-02-23T14:05:48.308Z,100255.65
2023-02-23T14:09:24.030Z,100252.94
2023-02-23T14:13:08.652Z,100250.95
2023-02-23T14:16:36.448Z,100246.11
2023-02-23T14:34:23.275Z,100241.86
2023-02-23T14:38:01.171Z,100244.44
2023-02-23T14:41:31.540Z,100243.75
2023-02-23T14:45:04.189Z,100237.50
2023-02-23T14:48:31.561Z,100231.20
2023-02-23T14:52:06.096Z,100230.41
2023-02-23T14:55:35.542Z,100226.78
2023-02-23T14:59:02.466Z,100227.69
2023-02-23T15:02:33.033Z,100223.55
2023-02-23T15:06:02.697Z,100219.11
2023-02-23T15:09:36.625Z,100219.88
2023-02-23T15:13:11.119Z,100214.23
2023-02-23T15:16:38.943Z,100209.10
2023-02-23T15:20:16.237Z,100203.83
2023-02-23T15:23:46.056Z,100201.95
2023-02-23T15:27:23.053Z,100197.15
2023-02-23T15:30:53.433Z,100189.94
2023-02-23T15:34:22.250Z,100180.27
2023-02-23T15:37:59.495Z,100174.63
2023-02-23T15:41:42.641Z,100168.67
2023-02-23T15:45:21.220Z,100162.66
2023-02-23T15:48:53.872Z,100155.86
2023-02-23T15:52:26.121Z,100151.02
2023-02-23T15:55:56.295Z,100143.83
2023-02-23T15:59:29.255Z,100143.61
2023-02-23T16:03:00.085Z,100138.56
2023-02-23T16:06:36.956Z,100139.36
2023-02-23T16:10:21.959Z,100132.86
2023-02-23T16:13:53.251Z,100129.52
2023-02-23T16:17:30.369Z,100128.52
2023-02-23T16:21:02.271Z,100130.19
2023-02-23T16:24:31.714Z,100125.06
2023-02-23T16:28:02.188Z,100118.34
2023-02-23T16:31:44.321Z,100113.80
2023-02-23T16:35:25.940Z,100106.61
2023-02-23T16:39:01.552Z,100097.59
2023-02-23T16:42:32.839Z,100094.70
2023-02-23T16:45:59.602Z,100091.99
2023-02-23T16:49:26.075Z,100097.40
2023-02-23T16:52:56.696Z,100092.91
2023-02-23T16:56:25.880Z,100091.21
2023-02-23T16:59:54.838Z,100086.09
2023-02-23T17:03:25.946Z,100077.98
2023-02-23T17:06:58.016Z,100078.29
2023-02-23T17:10:27.249Z,100079.48
2023-02-23T17:13:54.849Z,100083.33
2023-02-23T17:17:23.059Z,100087.18
2023-02-23T17:20:50.003Z,100085.77
2023-02-23T17:24:18.296Z,100081.04
2023-02-23T17:27:44.999Z,100077.80
2023-02-23T17:31:14.597Z,100074.70
2023-02-23T17:34:41.542Z,100075.75
2023-02-23T17:38:09.540Z,100075.12
2023-02-23T17:41:35.925Z,100071.88
2023-02-23T17:45:04.264Z,100071.25
2023-02-23T17:48:34.765Z,100067.42
2023-02-23T17:52:03.316Z,100068.31
2023-02-23T17:55:30.477Z,100065.88
2023-02-23T17:58:58.583Z,100063.05
2023-02-23T18:02:27.183Z,100055.75
2023-02-23T18:05:55.050Z,100052.23
2023-02-23T18:09:21.686Z,100047.48
2023-02-23T18:12:48.338Z,100043.02
2023-02-23T18:16:23.040Z,100039.05
2023-02-23T18:19:53.479Z,100034.16
2023-02-23T18:23:23.519Z,100029.07
2023-02-23T18:27:02.325Z,100025.16
2023-02-23T18:30:31.786Z,100023.45
2023-02-23T18:34:01.770Z,100017.07
2023-02-23T18:37:33.839Z,100014.23
2023-02-23T18:41:07.641Z,100014.48
2023-02-23T18:44:41.654Z,100011.89
2023-02-23T18:48:13.850Z,100003.65
2023-02-23T18:51:45.556Z,100001.67
2023-02-23T18:55:18.095Z,99999.13
2023-02-23T18:58:49.217Z,99995.97
2023-02-23T19:02:19.396Z,99990.75
2023-02-23T19:05:54.421Z,99984.64
2023-02-23T19:09:27.467Z,99978.01
2023-02-23T19:12:58.787Z,99971.75
2023-02-23T19:16:30.274Z,99965.87
2023-02-23T19:20:00.927Z,99960.98
2023-02-23T19:23:28.334Z,99958.63
2023-02-23T19:26:56.768Z,99957.25
2023-02-23T19:30:24.176Z,99953.02
2023-02-23T19:33:51.915Z,99949.77
2023-02-23T19:37:19.018Z,99946.32
2023-02-23T19:40:47.067Z,99945.21
2023-02-23T19:44:13.759Z,99939.59
2023-02-23T19:47:41.175Z,99931.55
2023-02-23T19:51:11.553Z,99928.62
2023-02-23T19:54:39.350Z,99925.27
2023-02-23T19:58:07.763Z,99926.86
2023-02-23T20:01:35.289Z,99920.73
2023-02-23T20:05:03.783Z,99921.23
2023-02-23T20:08:30.697Z,99914.28
2023-02-23T20:11:58.338Z,99912.08
2023-02-23T20:15:25.518Z,99911.59
2023-02-23T20:18:54.937Z,99910.77
2023-02-23T20:22:22.222Z,99906.66
2023-02-23T20:25:49.116Z,99906.63
2023-02-23T20:29:19.379Z,99903.95
2023-02-23T20:32:48.154Z,99899.44
2023-02-23T20:36:16.113Z,99897.03
2023-02-23T20:39:44.590Z,99895.77
2023-02-23T20:43:12.436Z,99889.84
2023-02-23T20:46:44.163Z,99885.36
2023-02-23T20:50:13.991Z,99884.16
2023-02-23T20:53:42.094Z,99878.04
2023-02-23T20:57:09.874Z,99873.26
2023-02-23T21:00:40.171Z,99869.31
2023-02-23T21:04:07.847Z,99864.66
2023-02-23T21:07:36.098Z,99864.70
2023-02-23T21:11:08.117Z,99858.98
2023-02-23T21:14:36.342Z,99855.97
2023-02-23T21:18:03.849Z,99850.50
2023-02-23T21:21:31.524Z,99847.52
2023-02-23T21:25:02.349Z,99841.80
2023-02-23T21:28:31.267Z,99836.27
2023-02-23T21:31:58.712Z,99835.84
2023-02-23T21:35:26.116Z,99827.08
2023-02-23T21:38:54.603Z,99820.60
2023-02-23T21:42:25.210Z,99813.23
2023-02-23T21:45:51.980Z,99813.91
2023-02-23T21:49:20.322Z,99812.66
2023-02-23T21:52:49.123Z,99811.91
2023-02-23T21:56:18.782Z,99812.15
2023-02-23T21:59:46.976Z,99811.34
2023-02-23T22:03:16.443Z,99804.44
2023-02-23T22:06:46.092Z,99799.52
2023-02-23T22:10:13.581Z,99793.05
2023-02-23T22:13:43.713Z,99792.27
2023-02-23T22:17:11.602Z,99785.96
2023-02-23T22:20:39.589Z,99785.30
2023-02-23T22:24:08.562Z,99787.65
2023-02-23T22:27:36.077Z,99786.20
2023-02-23T22:31:08.534Z,99781.71
2023-02-23T22:34:35.521Z,99777.70
2023-02-23T22:38:13.056Z,99771.85
2023-02-23T22:41:42.603Z,99764.15
2023-02-23T22:45:12.686Z,99760.67
2023-02-23T22:48:44.074Z,99755.27
2023-02-23T22:52:13.135Z,99753.72
2023-02-23T22:55:42.708Z,99749.53
2023-02-23T22:59:19.583Z,99744.17
2023-02-23T23:02:47.469Z,99735.22
2023-02-23T23:06:18.011Z,99725.39
2023-02-23T23:09:45.223Z,99718.42
2023-02-23T23:13:12.592Z,99724.11
2023-02-23T23:16:48.395Z,99718.92
2023-02-23T23:20:23.416Z,99714.70
2023-02-23T23:23:51.851Z,99711.15
2023-02-23T23:27:20.398Z,99703.84
2023-02-23T23:30:52.498Z,99695.11
2023-02-23T23:34:21.930Z,99694.34
2023-02-23T23:37:49.849Z,99695.77
2023-02-23T23:41:17.398Z,99688.77
2023-02-23T23:44:45.763Z,99678.55
2023-02-23T23:48:14.357Z,99672.34
2023-02-23T23:51:45.044Z,99662.72
2023-02-23T23:55:15.109Z,99653.63
2023-02-23T23:58:42.606Z,99653.48
